Bennington, Oklahoma
Current Conditions -  °F | °C
As of 10:15 AM on Sunday 23 Nov 2014 (Local Time) from KDUA Reporting Station
Broken Clouds Broken Clouds  
Wind Chill: 61°   Ceiling: 1100
Heat Index: 61°   Visibility: 10mi
Dew Point: 61°   Wind: 15mph
Humidity: 100%   Direction: 190°S
Pressure: 29.47"   Gusts: NA
Location:  34°N, 96.04°W
Report Text: KDUA 231615Z AUTO 19013KT 10SM BKN011 16/16 A2947 RMK AO2
Loading
Personal Weather Stations






























Interactive Weather Map New forecast layout! Learn more

10-Day Weather Forecast

Advertisements
Track Severe Weather on mobile